createdAt,value
2023-04-22T00:00:19.102Z,38.93
2023-04-22T00:02:47.204Z,38.94
2023-04-22T00:05:17.198Z,38.90
2023-04-22T00:07:47.945Z,38.87
2023-04-22T00:10:15.478Z,38.90
2023-04-22T00:12:42.925Z,38.95
2023-04-22T00:15:10.833Z,38.98
2023-04-22T00:17:38.295Z,39.02
2023-04-22T00:20:07.649Z,39.07
2023-04-22T00:22:35.417Z,39.09
2023-04-22T00:25:02.832Z,39.10
2023-04-22T00:27:30.353Z,39.06
2023-04-22T00:29:58.001Z,39.13
2023-04-22T00:32:26.272Z,39.14
2023-04-22T00:34:54.232Z,39.19
2023-04-22T00:37:21.929Z,39.18
2023-04-22T00:39:49.340Z,39.24
2023-04-22T00:42:16.842Z,39.29
2023-04-22T00:44:44.799Z,39.33
2023-04-22T00:47:12.696Z,39.27
2023-04-22T00:49:40.542Z,39.31
2023-04-22T00:52:08.405Z,39.32
2023-04-22T00:54:36.462Z,39.27
2023-04-22T00:57:04.059Z,39.31
2023-04-22T00:59:31.757Z,39.25
2023-04-22T01:01:59.363Z,39.10
2023-04-22T01:04:26.829Z,39.17
2023-04-22T01:06:54.830Z,39.25
2023-04-22T01:09:22.248Z,39.34
2023-04-22T01:11:49.706Z,39.41
2023-04-22T01:14:17.497Z,39.47
2023-04-22T01:16:45.066Z,39.48
2023-04-22T01:19:12.459Z,39.48
2023-04-22T01:21:40.905Z,39.38
2023-04-22T01:24:08.476Z,39.40
2023-04-22T01:26:36.559Z,39.45
2023-04-22T01:29:04.997Z,39.45
2023-04-22T01:31:32.460Z,39.46
2023-04-22T01:33:59.978Z,39.45
2023-04-22T01:36:27.847Z,39.45
2023-04-22T01:38:55.505Z,39.45
2023-04-22T01:41:22.929Z,39.49
2023-04-22T01:43:51.467Z,39.50
2023-04-22T01:46:18.893Z,39.47
2023-04-22T01:48:52.632Z,39.49
2023-04-22T01:51:22.018Z,39.51
2023-04-22T01:53:49.536Z,39.49
2023-04-22T01:56:17.090Z,39.50
2023-04-22T01:58:44.787Z,39.50
2023-04-22T02:01:13.036Z,39.51
2023-04-22T02:03:41.115Z,39.50
2023-04-22T02:06:08.585Z,39.52
2023-04-22T02:08:36.463Z,39.49
2023-04-22T02:11:06.638Z,39.46
2023-04-22T02:13:37.840Z,39.37
2023-04-22T02:16:05.940Z,39.39
2023-04-22T02:18:33.882Z,39.31
2023-04-22T02:21:01.309Z,39.40
2023-04-22T02:23:28.926Z,39.46
2023-04-22T02:25:57.003Z,39.45
2023-04-22T02:28:24.493Z,39.44
2023-04-22T02:30:53.178Z,39.51
2023-04-22T02:33:21.881Z,39.51
2023-04-22T02:35:49.331Z,39.52
2023-04-22T02:38:17.042Z,39.55
2023-04-22T02:40:44.723Z,39.53
2023-04-22T02:43:12.850Z,39.54
2023-04-22T02:45:40.988Z,39.56
2023-04-22T02:48:08.816Z,39.57
2023-04-22T02:50:36.623Z,39.57
2023-04-22T02:53:04.170Z,39.58
2023-04-22T02:55:31.957Z,39.62
2023-04-22T02:57:59.394Z,39.64
2023-04-22T03:00:26.849Z,39.68
2023-04-22T03:02:54.758Z,39.70
2023-04-22T03:05:22.495Z,39.70
2023-04-22T03:07:50.659Z,39.73
2023-04-22T03:10:18.454Z,39.73
2023-04-22T03:12:45.917Z,39.76
2023-04-22T03:15:13.858Z,39.73
2023-04-22T03:17:41.531Z,39.72
2023-04-22T03:20:10.093Z,39.73
2023-04-22T03:22:37.489Z,39.77
2023-04-22T03:25:06.431Z,39.76
2023-04-22T03:27:34.055Z,39.80
2023-04-22T03:30:01.515Z,39.81
2023-04-22T03:32:31.129Z,39.75
2023-04-22T03:34:59.524Z,39.77
2023-04-22T03:37:27.980Z,39.82
2023-04-22T03:39:55.830Z,39.82
2023-04-22T03:42:23.278Z,39.82
2023-04-22T03:44:50.714Z,39.83
2023-04-22T03:47:19.816Z,39.84
2023-04-22T03:49:47.851Z,39.85
2023-04-22T03:52:15.478Z,39.87
2023-04-22T03:54:43.725Z,39.87
2023-04-22T03:57:11.206Z,39.90
2023-04-22T03:59:39.390Z,39.89
2023-04-22T04:02:08.957Z,39.89
2023-04-22T04:04:37.225Z,39.91
2023-04-22T04:07:05.031Z,39.90
2023-04-22T04:09:32.498Z,39.90
2023-04-22T04:12:00.337Z,39.91
2023-04-22T04:14:28.293Z,39.91
2023-04-22T04:16:55.804Z,39.91
2023-04-22T04:19:24.190Z,39.93
2023-04-22T04:21:51.709Z,39.92
2023-04-22T04:24:19.464Z,39.92
2023-04-22T04:26:48.884Z,39.93
2023-04-22T04:29:16.539Z,39.94
2023-04-22T04:31:46.122Z,39.96
2023-04-22T04:34:14.019Z,39.97
2023-04-22T04:36:41.526Z,39.97
2023-04-22T04:39:09.703Z,39.99
2023-04-22T04:41:38.702Z,40.01
2023-04-22T04:44:07.468Z,40.00
2023-04-22T04:46:37.716Z,39.99
2023-04-22T04:49:07.118Z,39.98
2023-04-22T04:51:35.853Z,39.92
2023-04-22T04:54:03.322Z,39.88
2023-04-22T04:56:31.779Z,39.93
2023-04-22T04:58:59.400Z,39.98
2023-04-22T05:01:27.218Z,40.00
2023-04-22T05:03:57.005Z,39.99
2023-04-22T05:06:24.561Z,40.00
2023-04-22T05:08:52.333Z,39.99
2023-04-22T05:11:20.106Z,40.01
2023-04-22T05:13:49.989Z,39.99
2023-04-22T05:16:19.107Z,39.97
2023-04-22T05:18:47.020Z,40.02
2023-04-22T05:21:16.041Z,40.03
2023-04-22T05:23:43.694Z,40.01
2023-04-22T05:26:30.292Z,39.99
2023-04-22T05:28:57.819Z,40.00
2023-04-22T05:31:25.840Z,39.86
2023-04-22T05:33:53.339Z,39.82
2023-04-22T05:36:21.214Z,39.83
2023-04-22T05:38:49.029Z,39.83
2023-04-22T05:41:16.881Z,39.83
2023-04-22T05:43:46.890Z,39.79
2023-04-22T05:46:15.028Z,39.76
2023-04-22T05:48:43.130Z,39.78
2023-04-22T05:51:10.922Z,39.85
2023-04-22T05:53:38.596Z,39.79
2023-04-22T05:56:06.226Z,39.77
2023-04-22T05:58:33.920Z,39.77
2023-04-22T06:01:01.837Z,39.76
2023-04-22T06:03:30.483Z,39.77
2023-04-22T06:05:58.261Z,39.79
2023-04-22T06:08:25.805Z,39.82
2023-04-22T06:10:53.537Z,39.72
2023-04-22T06:13:21.307Z,39.65
2023-04-22T06:15:48.871Z,39.65
2023-04-22T06:18:16.590Z,39.69
2023-04-22T06:20:44.066Z,39.99
2023-04-22T06:23:12.739Z,39.55
2023-04-22T06:25:40.436Z,39.06
2023-04-22T06:28:07.865Z,38.91
2023-04-22T06:30:35.527Z,38.92
2023-04-22T06:33:03.464Z,38.92
2023-04-22T06:35:31.469Z,38.83
2023-04-22T06:37:58.848Z,38.73
2023-04-22T06:40:27.805Z,38.57
2023-04-22T06:42:55.797Z,38.40
2023-04-22T06:45:25.303Z,38.31
2023-04-22T06:47:54.192Z,38.20
2023-04-22T06:50:22.630Z,38.19
2023-04-22T06:52:50.492Z,38.06
2023-04-22T06:55:18.375Z,37.97
2023-04-22T06:57:45.786Z,37.88
2023-04-22T07:00:13.609Z,37.93
2023-04-22T07:02:41.970Z,37.99
2023-04-22T07:05:09.671Z,37.99
2023-04-22T07:07:37.585Z,38.01
2023-04-22T07:10:06.223Z,38.02
2023-04-22T07:12:33.904Z,38.01
2023-04-22T07:15:01.264Z,37.98
2023-04-22T07:17:28.997Z,37.98
2023-04-22T07:19:56.456Z,37.96
2023-04-22T07:22:23.884Z,37.95
2023-04-22T07:24:51.583Z,37.91
2023-04-22T07:27:18.982Z,37.93
2023-04-22T07:29:46.388Z,37.94
2023-04-22T07:32:14.100Z,37.95
2023-04-22T07:34:41.520Z,37.99
2023-04-22T07:37:09.602Z,37.99
2023-04-22T07:39:37.558Z,37.93
2023-04-22T07:42:05.581Z,37.92
2023-04-22T07:44:33.013Z,37.94
2023-04-22T07:47:00.657Z,37.97
2023-04-22T07:49:28.070Z,37.96
2023-04-22T07:51:56.677Z,37.98
2023-04-22T07:54:24.494Z,37.97
2023-04-22T07:56:51.902Z,37.96
2023-04-22T07:59:19.405Z,37.96
2023-04-22T08:01:47.085Z,37.96
2023-04-22T08:04:15.288Z,37.96
2023-04-22T08:06:42.938Z,37.94
2023-04-22T08:09:10.596Z,37.94
2023-04-22T08:11:38.296Z,37.88
2023-04-22T08:14:05.686Z,37.93
2023-04-22T08:16:33.063Z,37.94
2023-04-22T08:19:00.770Z,37.87
2023-04-22T08:21:28.483Z,37.92
2023-04-22T08:23:56.087Z,37.96
2023-04-22T08:26:23.779Z,37.97
2023-04-22T08:28:51.268Z,37.97
2023-04-22T08:31:18.780Z,37.94
2023-04-22T08:33:46.553Z,37.86
2023-04-22T08:36:14.029Z,37.77
2023-04-22T08:38:41.417Z,37.66
2023-04-22T08:41:09.083Z,37.55
2023-04-22T10:30:40.440Z,34.00
2023-04-22T10:33:20.912Z,34.14
2023-04-22T10:36:10.667Z,34.35
2023-04-22T10:38:39.583Z,34.36
2023-04-22T10:41:07.149Z,34.46
2023-04-22T10:44:00.915Z,34.58
2023-04-22T10:46:39.773Z,34.78
2023-04-22T10:49:11.339Z,33.93
2023-04-22T10:51:46.524Z,33.68
2023-04-22T10:54:31.781Z,33.52
2023-04-22T10:57:03.691Z,34.08
2023-04-22T10:59:32.070Z,34.29
2023-04-22T11:02:06.616Z,34.62
2023-04-22T11:04:35.586Z,34.74
2023-04-22T11:07:17.128Z,34.86
2023-04-22T11:09:45.638Z,34.95
2023-04-22T11:12:35.319Z,35.19
2023-04-22T11:15:15.419Z,35.42
2023-04-22T11:17:44.512Z,35.59
2023-04-22T11:20:12.897Z,35.68
2023-04-22T11:22:42.367Z,35.68
2023-04-22T11:25:10.418Z,35.73
2023-04-22T11:27:38.343Z,35.71
2023-04-22T11:30:07.678Z,35.91
2023-04-22T11:32:36.203Z,36.07
2023-04-22T11:35:08.328Z,36.13
2023-04-22T11:37:42.141Z,36.24
2023-04-22T11:40:28.951Z,36.33
2023-04-22T11:42:58.195Z,36.43
2023-04-22T11:45:26.398Z,36.46
2023-04-22T11:47:54.016Z,36.46
2023-04-22T11:50:23.028Z,36.33
2023-04-22T11:53:04.291Z,36.29
2023-04-22T11:55:35.920Z,36.25
2023-04-22T11:58:10.313Z,36.04
2023-04-22T12:00:44.085Z,35.55
2023-04-22T12:03:15.845Z,35.18
2023-04-22T12:05:47.104Z,35.09
2023-04-22T12:08:16.331Z,35.17
2023-04-22T12:10:45.482Z,35.21
2023-04-22T12:13:23.338Z,34.79
2023-04-22T12:15:56.936Z,34.80
2023-04-22T12:18:34.244Z,34.83
2023-04-22T12:21:12.717Z,34.83
2023-04-22T12:24:06.966Z,34.91
2023-04-22T12:26:34.660Z,34.93
2023-04-22T12:29:02.094Z,34.95
2023-04-22T12:31:29.583Z,35.02
2023-04-22T12:33:57.356Z,35.11
2023-04-22T12:36:25.291Z,35.13
2023-04-22T12:38:52.872Z,35.19
2023-04-22T12:41:20.581Z,35.03
2023-04-22T12:43:48.276Z,35.05
2023-04-22T12:46:15.779Z,35.04
2023-04-22T12:48:43.457Z,35.06
2023-04-22T12:51:10.925Z,34.96
2023-04-22T12:53:38.322Z,34.85
2023-04-22T12:56:06.006Z,34.75
2023-04-22T12:58:33.427Z,34.68
2023-04-22T13:01:00.850Z,34.73
2023-04-22T13:03:28.769Z,34.78
2023-04-22T13:05:56.417Z,34.53
2023-04-22T13:08:23.860Z,34.39
2023-04-22T13:10:51.838Z,34.22
2023-04-22T13:13:19.633Z,34.08
2023-04-22T13:15:53.542Z,33.68
2023-04-22T13:18:22.892Z,33.79
2023-04-22T13:20:51.206Z,33.60
2023-04-22T13:23:21.768Z,33.40
2023-04-22T13:25:50.295Z,33.09
2023-04-22T13:28:17.740Z,32.05
2023-04-22T13:30:45.209Z,32.18
2023-04-22T13:33:12.889Z,32.49
2023-04-22T13:35:40.506Z,32.58
2023-04-22T13:38:07.986Z,31.67
2023-04-22T13:40:35.967Z,32.33
2023-04-22T13:43:03.449Z,31.98
2023-04-22T13:45:30.958Z,31.47
2023-04-22T13:47:58.713Z,31.72
2023-04-22T13:50:26.178Z,31.78
2023-04-22T13:52:53.569Z,31.88
2023-04-22T13:55:21.385Z,31.83
2023-04-22T13:57:50.898Z,31.74
2023-04-22T14:00:18.736Z,31.56
2023-04-22T14:02:46.747Z,31.62
2023-04-22T14:05:14.280Z,31.70
2023-04-22T14:07:41.708Z,31.75
2023-04-22T14:10:12.093Z,31.84
2023-04-22T14:12:39.498Z,31.85
2023-04-22T14:15:10.747Z,31.80
2023-04-22T14:17:41.486Z,31.74
2023-04-22T14:20:09.764Z,31.83
2023-04-22T14:22:37.252Z,32.02
2023-04-22T14:25:05.488Z,32.29
2023-04-22T14:27:33.065Z,32.45
2023-04-22T14:30:01.453Z,32.43
2023-04-22T14:32:29.378Z,32.41
2023-04-22T14:34:56.855Z,32.39
2023-04-22T14:37:24.265Z,32.35
2023-04-22T14:39:52.070Z,32.03
2023-04-22T14:42:19.626Z,31.96
2023-04-22T14:44:47.001Z,31.96
2023-04-22T14:47:14.755Z,31.87
2023-04-22T14:49:43.605Z,31.87
2023-04-22T14:52:11.080Z,31.72
2023-04-22T14:54:38.796Z,31.48
2023-04-22T14:57:06.198Z,31.61
2023-04-22T14:59:33.610Z,31.73
2023-04-22T15:02:01.560Z,31.85
2023-04-22T15:04:29.190Z,31.90
2023-04-22T15:06:57.760Z,32.05
2023-04-22T15:09:25.753Z,32.44
2023-04-22T15:11:54.830Z,32.38
2023-04-22T15:14:22.297Z,32.39
2023-04-22T15:16:50.141Z,32.51
2023-04-22T15:19:17.576Z,32.59
2023-04-22T15:21:45.012Z,32.67
2023-04-22T15:24:12.883Z,32.63
2023-04-22T15:26:40.731Z,32.62
2023-04-22T15:29:08.183Z,32.69
2023-04-22T15:31:36.036Z,32.78
2023-04-22T15:34:03.457Z,32.83
2023-04-22T15:36:31.574Z,32.91
2023-04-22T15:38:59.397Z,32.93
2023-04-22T15:41:27.021Z,32.98
2023-04-22T15:43:54.467Z,33.03
2023-04-22T15:46:22.287Z,33.08
2023-04-22T15:48:49.814Z,33.19
2023-04-22T15:51:17.985Z,33.18
2023-04-22T15:53:46.065Z,33.30
2023-04-22T15:56:13.896Z,33.29
2023-04-22T15:58:41.386Z,33.39
2023-04-22T16:01:18.925Z,33.44
2023-04-22T16:03:48.378Z,33.52
2023-04-22T16:06:19.930Z,33.54
2023-04-22T16:08:47.593Z,33.58
2023-04-22T16:11:15.271Z,33.60
2023-04-22T16:13:42.813Z,33.63
2023-04-22T16:16:11.093Z,33.68
2023-04-22T16:18:38.633Z,33.71
2023-04-22T16:21:06.030Z,33.73
2023-04-22T16:23:34.603Z,33.76
2023-04-22T16:26:04.441Z,33.78
2023-04-22T16:28:32.005Z,33.80
2023-04-22T16:31:00.504Z,33.80
2023-04-22T16:33:28.031Z,33.85
2023-04-22T16:35:55.555Z,33.89
2023-04-22T16:38:23.273Z,33.91
2023-04-22T16:40:54.065Z,33.96
2023-04-22T16:43:21.540Z,33.99
2023-04-22T16:45:49.303Z,34.00
2023-04-22T16:48:16.921Z,34.03
2023-04-22T16:50:44.363Z,34.07
2023-04-22T16:53:12.032Z,34.08
2023-04-22T16:55:39.486Z,34.11
2023-04-22T16:58:06.962Z,34.14
2023-04-22T17:00:34.617Z,34.17
2023-04-22T17:03:02.332Z,34.21
2023-04-22T17:05:30.212Z,34.23
2023-04-22T17:07:57.920Z,34.24
2023-04-22T17:10:25.484Z,34.28
2023-04-22T17:12:53.421Z,34.32
2023-04-22T17:15:21.274Z,34.34
2023-04-22T17:17:48.675Z,34.36
2023-04-22T17:20:16.280Z,34.38
2023-04-22T17:22:43.930Z,34.41
2023-04-22T17:25:11.535Z,34.43
2023-04-22T17:27:39.033Z,34.45
2023-04-22T17:30:07.557Z,34.48
2023-04-22T17:32:35.013Z,34.50
2023-04-22T17:35:02.840Z,34.51
2023-04-22T17:37:30.646Z,34.53
2023-04-22T17:39:58.066Z,34.57
2023-04-22T17:42:35.399Z,34.60
2023-04-22T17:45:11.152Z,34.62
2023-04-22T17:47:38.649Z,34.64
2023-04-22T17:50:06.805Z,34.65
2023-04-22T17:52:35.175Z,34.69
2023-04-22T17:55:03.134Z,34.70
2023-04-22T17:57:31.215Z,34.72
2023-04-22T17:59:58.982Z,34.73
2023-04-22T18:02:26.442Z,34.74
2023-04-22T18:04:54.203Z,34.76
2023-04-22T18:07:22.703Z,34.77
2023-04-22T18:09:50.737Z,34.79
2023-04-22T18:12:18.807Z,34.80
2023-04-22T18:14:46.345Z,34.83
2023-04-22T18:17:13.968Z,34.85
2023-04-22T18:19:42.006Z,34.87
2023-04-22T18:22:09.594Z,34.89
2023-04-22T18:24:36.999Z,34.91
2023-04-22T18:27:04.781Z,34.92
2023-04-22T18:29:32.185Z,34.95
2023-04-22T18:31:59.770Z,34.97
2023-04-22T18:34:29.082Z,34.98
2023-04-22T18:36:56.790Z,34.99
2023-04-22T18:39:24.336Z,35.00
2023-04-22T18:41:52.177Z,35.03
2023-04-22T18:44:20.138Z,35.04
2023-04-22T18:46:47.643Z,35.06
2023-04-22T18:49:15.396Z,35.09
2023-04-22T18:51:42.950Z,35.10
2023-04-22T18:54:10.763Z,35.12
2023-04-22T18:56:38.797Z,35.12
2023-04-22T18:59:06.281Z,35.16
2023-04-22T19:01:35.103Z,35.16
2023-04-22T19:04:04.083Z,35.20
2023-04-22T19:06:32.316Z,35.21
2023-04-22T19:09:00.331Z,35.23
2023-04-22T19:11:28.063Z,35.23
2023-04-22T19:13:55.654Z,35.23
2023-04-22T19:16:25.629Z,35.26
2023-04-22T19:18:54.050Z,35.27
2023-04-22T19:21:22.000Z,35.28
2023-04-22T19:23:53.087Z,35.30
2023-04-22T19:26:22.159Z,35.32
2023-04-22T19:28:49.975Z,35.33
2023-04-22T19:31:17.704Z,35.34
2023-04-22T19:33:45.489Z,35.34
2023-04-22T19:36:13.056Z,35.35
2023-04-22T19:38:41.658Z,35.35
2023-04-22T19:41:11.555Z,35.21
2023-04-22T19:43:40.827Z,35.11
2023-04-22T19:46:09.144Z,35.04
2023-04-22T19:48:37.462Z,35.06
2023-04-22T19:51:05.956Z,35.20
2023-04-22T19:53:33.735Z,35.29
2023-04-22T19:56:02.370Z,35.36
2023-04-22T19:58:30.810Z,35.37
2023-04-22T20:00:59.726Z,35.36
2023-04-22T20:03:27.998Z,35.38
2023-04-22T20:05:55.596Z,35.37
2023-04-22T20:08:26.139Z,35.38
2023-04-22T20:10:55.380Z,35.43
2023-04-22T20:13:23.315Z,35.40
2023-04-22T20:15:51.332Z,35.40
2023-04-22T20:18:19.757Z,35.40
2023-04-22T20:20:48.299Z,35.42
2023-04-22T20:23:16.834Z,35.41
2023-04-22T20:25:45.226Z,35.49
2023-04-22T20:28:12.854Z,35.59
2023-04-22T20:30:40.817Z,35.64
2023-04-22T20:33:12.094Z,35.66
2023-04-22T20:35:40.327Z,35.71
2023-04-22T20:38:08.912Z,35.72
2023-04-22T20:40:36.339Z,35.74
2023-04-22T20:43:03.757Z,35.46
2023-04-22T20:45:32.107Z,34.49
2023-04-22T20:47:59.678Z,34.50
2023-04-22T20:50:33.005Z,34.60
2023-04-22T20:53:01.195Z,34.71
2023-04-22T20:55:28.990Z,34.83
2023-04-22T20:57:56.522Z,34.93
2023-04-22T21:00:24.250Z,35.01
2023-04-22T21:02:51.906Z,35.08
2023-04-22T21:05:19.824Z,35.14
2023-04-22T21:07:47.595Z,35.20
2023-04-22T21:10:15.291Z,35.26
2023-04-22T21:12:43.255Z,35.29
2023-04-22T21:15:11.365Z,35.31
2023-04-22T21:17:41.021Z,35.34
2023-04-22T21:20:11.461Z,35.35
2023-04-22T21:22:39.116Z,35.35
2023-04-22T21:25:07.107Z,35.39
2023-04-22T21:27:34.838Z,35.43
2023-04-22T21:30:02.722Z,35.46
2023-04-22T21:32:30.225Z,35.47
2023-04-22T21:34:57.601Z,35.50
2023-04-22T21:37:25.281Z,35.54
2023-04-22T21:39:52.662Z,35.55
2023-04-22T21:42:20.649Z,35.56
2023-04-22T21:44:49.893Z,35.60
2023-04-22T21:47:17.372Z,35.64
2023-04-22T21:49:46.779Z,35.68
2023-04-22T21:52:14.722Z,35.69
2023-04-22T21:54:44.923Z,35.67
2023-04-22T21:57:12.580Z,35.72
2023-04-22T21:59:40.877Z,35.74
2023-04-22T22:02:08.757Z,35.79
2023-04-22T22:04:36.539Z,35.83
2023-04-22T22:07:04.086Z,35.84
2023-04-22T22:09:32.012Z,35.91
2023-04-22T22:11:59.892Z,35.88
2023-04-22T22:14:27.552Z,35.90
2023-04-22T22:16:55.355Z,35.91
2023-04-22T22:19:27.631Z,35.94
2023-04-22T22:21:55.335Z,35.94
2023-04-22T22:24:23.171Z,35.94
2023-04-22T22:26:50.810Z,36.00
2023-04-22T22:29:18.497Z,35.99
2023-04-22T22:31:47.368Z,36.03
2023-04-22T22:34:14.804Z,36.04
2023-04-22T22:36:42.663Z,36.03
2023-04-22T22:39:11.969Z,36.05
2023-04-22T22:41:41.661Z,36.09
2023-04-22T22:44:10.887Z,36.07
2023-04-22T22:46:40.296Z,36.09
2023-04-22T22:49:07.951Z,36.11
2023-04-22T22:51:37.507Z,36.30
2023-04-22T22:54:05.294Z,36.43
2023-04-22T22:56:32.767Z,35.98
2023-04-22T22:59:00.636Z,35.77
2023-04-22T23:01:28.086Z,35.84
2023-04-22T23:03:55.812Z,35.93
2023-04-22T23:06:23.710Z,36.09
2023-04-22T23:08:51.151Z,36.15
2023-04-22T23:11:18.688Z,36.19
2023-04-22T23:13:46.539Z,36.21
2023-04-22T23:16:13.953Z,36.24
2023-04-22T23:18:41.367Z,36.23
2023-04-22T23:21:09.276Z,36.30
2023-04-22T23:23:37.003Z,36.23
2023-04-22T23:26:04.655Z,36.17
2023-04-22T23:28:32.690Z,36.17
2023-04-22T23:31:00.140Z,36.16
2023-04-22T23:33:27.599Z,36.18
2023-04-22T23:35:56.658Z,36.18
2023-04-22T23:38:24.135Z,36.22
2023-04-22T23:40:51.588Z,36.33
2023-04-22T23:43:19.232Z,36.40
2023-04-22T23:45:46.651Z,36.39
2023-04-22T23:48:14.257Z,36.43
2023-04-22T23:50:41.979Z,36.46
2023-04-22T23:53:09.429Z,36.44
2023-04-22T23:55:37.162Z,36.43
2023-04-22T23:58:04.901Z,36.47
